Time;durP1;ratioP1;P1;durP2;ratioP2;P2;SDS_P1;SDS_P2;PMS_P1;PMS_P2;Temp;Humidity;BMP_temperature;BMP_pressure;BME280_temperature;BME280_humidity;BME280_pressure;Samples;Min_cycle;Max_cycle;Signal;HPM_P1;HPM_P2
2023/06/19 00:02:18;;;;;;;5.88;4.05;;;;;;;24.68;40.67;100729.69;5125043;28;20058;-61
2023/06/19 00:04:46;;;;;;;5.72;4.85;;;;;;;24.69;41.15;100738.75;5127450;28;20274;-61
2023/06/19 00:07:14;;;;;;;5.88;3.90;;;;;;;24.68;40.89;100743.44;5123740;28;20047;-62
2023/06/19 00:09:43;;;;;;;4.85;3.85;;;;;;;24.66;41.20;100748.44;5120979;28;20105;-61
2023/06/19 00:12:11;;;;;;;5.65;4.03;;;;;;;24.67;41.19;100752.81;5117258;28;20048;-61
2023/06/19 00:14:39;;;;;;;5.68;4.45;;;;;;;24.65;41.10;100755.88;5119294;28;20047;-62
2023/06/19 00:17:07;;;;;;;6.65;4.35;;;;;;;24.63;41.17;100751.84;5116795;28;20043;-61
2023/06/19 00:19:35;;;;;;;5.40;4.30;;;;;;;24.63;41.54;100760.06;5125754;28;20043;-62
2023/06/19 00:22:04;;;;;;;5.18;4.05;;;;;;;24.61;41.17;100756.84;5126353;28;20047;-62
2023/06/19 00:24:32;;;;;;;7.05;5.00;;;;;;;24.60;41.15;100768.97;5125623;28;20056;-62
2023/06/19 00:27:02;;;;;;;6.78;4.50;;;;;;;24.58;41.13;100771.22;5122502;28;20120;-62
2023/06/19 00:29:31;;;;;;;7.20;4.55;;;;;;;24.56;41.50;100767.97;5121845;28;20092;-61
2023/06/19 00:31:59;;;;;;;4.47;3.75;;;;;;;24.54;41.47;100772.97;5123604;28;20048;-61
2023/06/19 00:34:29;;;;;;;5.57;4.30;;;;;;;24.52;41.54;100773.28;5115894;28;20130;-62
2023/06/19 00:36:58;;;;;;;4.95;3.80;;;;;;;24.51;41.55;100781.84;5125641;28;20541;-63
2023/06/19 00:39:27;;;;;;;6.40;4.60;;;;;;;24.49;41.93;100779.41;5122528;28;20050;-61
2023/06/19 00:41:56;;;;;;;6.25;4.25;;;;;;;24.48;42.04;100786.03;5123031;28;20059;-61
2023/06/19 00:44:25;;;;;;;7.43;4.55;;;;;;;24.46;41.87;100788.28;5122699;28;20051;-62
2023/06/19 00:46:58;;;;;;;5.65;4.18;;;;;;;24.45;42.25;100783.13;5122440;28;20077;-61
2023/06/19 00:49:29;;;;;;;7.13;4.38;;;;;;;24.43;42.19;100794.44;5122158;28;20044;-61
2023/06/19 00:51:58;;;;;;;6.22;4.40;;;;;;;24.42;42.20;100789.25;5121230;28;20043;-60
2023/06/19 00:54:26;;;;;;;7.47;4.60;;;;;;;24.41;42.03;100801.34;5123755;28;20051;-61
2023/06/19 00:56:54;;;;;;;5.28;4.20;;;;;;;24.38;42.19;100800.06;5121038;28;20047;-61
2023/06/19 00:59:22;;;;;;;5.60;4.03;;;;;;;24.37;41.83;100803.94;5115343;28;20051;-60
2023/06/19 01:01:51;;;;;;;6.95;4.13;;;;;;;24.35;42.43;100806.19;5123612;28;20488;-61
2023/06/19 01:04:19;;;;;;;5.97;4.28;;;;;;;24.34;42.27;100802.63;5117059;28;20067;-61
2023/06/19 01:06:57;;;;;;;5.45;4.35;;;;;;;24.33;42.00;100808.44;5124598;28;20100;-61
2023/06/19 01:09:30;;;;;;;5.10;4.22;;;;;;;24.31;42.63;100805.19;5123878;28;20104;-61
2023/06/19 01:12:05;;;;;;;7.40;4.40;;;;;;;24.29;42.41;100813.75;5122293;28;20056;-61
2023/06/19 01:14:38;;;;;;;6.25;4.55;;;;;;;24.27;42.67;100810.50;5126343;28;20047;-62
2023/06/19 01:17:08;;;;;;;5.13;4.20;;;;;;;24.24;42.32;100816.63;5124449;28;20085;-62
2023/06/19 01:19:36;;;;;;;6.90;4.30;;;;;;;24.21;42.66;100808.19;5113730;28;20044;-61
2023/06/19 01:22:06;;;;;;;6.13;4.55;;;;;;;24.21;42.84;100809.00;5126072;28;20043;-61
2023/06/19 01:24:34;;;;;;;5.72;4.38;;;;;;;24.20;43.02;100815.63;5120773;28;20047;-61
2023/06/19 01:27:02;;;;;;;5.45;4.55;;;;;;;24.18;43.07;100812.38;5124236;28;20039;-62
2023/06/19 01:29:30;;;;;;;6.38;4.03;;;;;;;24.18;43.10;100817.06;5121412;28;20108;-61
2023/06/19 01:32:05;;;;;;;7.45;4.40;;;;;;;24.16;42.99;100816.56;5119376;28;20044;-62
2023/06/19 01:34:34;;;;;;;6.18;4.70;;;;;;;24.16;43.14;100816.56;5125007;28;20048;-62
2023/06/19 01:37:08;;;;;;;9.43;4.80;;;;;;;24.15;42.93;100818.50;5120008;28;20172;-62
2023/06/19 01:39:37;;;;;;;6.35;4.20;;;;;;;24.13;43.21;100823.50;5120625;28;20043;-61
2023/06/19 01:42:06;;;;;;;5.60;4.15;;;;;;;24.10;43.70;100826.88;5122486;28;20043;-63
2023/06/19 01:44:34;;;;;;;5.22;3.85;;;;;;;24.09;43.63;100822.50;5122156;28;20039;-62
2023/06/19 01:47:09;;;;;;;6.05;4.10;;;;;;;24.10;44.23;100826.88;5124233;28;20514;-61
2023/06/19 01:49:37;;;;;;;4.95;3.95;;;;;;;24.08;43.80;100820.88;5122772;28;20048;-61
2023/06/19 01:52:07;;;;;;;5.65;4.07;;;;;;;24.06;43.65;100825.88;5122539;28;20105;-62
2023/06/19 01:54:35;;;;;;;6.10;4.15;;;;;;;24.04;44.12;100827.31;5124600;28;20135;-62
2023/06/19 01:57:03;;;;;;;5.60;4.40;;;;;;;24.02;44.62;100830.38;5124547;28;20577;-61
2023/06/19 01:59:30;;;;;;;5.13;3.63;;;;;;;24.01;44.61;100840.53;5116727;28;20048;-63
2023/06/19 02:01:58;;;;;;;5.93;4.22;;;;;;;24.00;44.29;100838.91;5123445;28;20446;-61
2023/06/19 02:04:26;;;;;;;5.05;3.95;;;;;;;23.97;44.35;100847.78;5124981;28;20044;-60
2023/06/19 02:06:53;;;;;;;5.50;4.00;;;;;;;23.97;45.11;100855.19;5113511;28;20052;-60
2023/06/19 02:09:23;;;;;;;5.38;3.90;;;;;;;23.94;45.00;100859.38;5122842;28;20047;-61
2023/06/19 02:11:50;;;;;;;4.97;3.67;;;;;;;23.92;45.49;100864.38;5121095;28;21498;-61
2023/06/19 02:14:18;;;;;;;4.68;3.40;;;;;;;23.90;45.18;100868.53;5124110;28;20481;-62
2023/06/19 02:16:46;;;;;;;6.13;3.20;;;;;;;23.88;45.88;100871.59;5123558;28;20055;-61
2023/06/19 02:19:14;;;;;;;6.22;3.60;;;;;;;23.85;46.05;100866.72;5120317;28;20044;-62
2023/06/19 02:21:41;;;;;;;4.50;3.20;;;;;;;23.85;45.45;100874.16;5121812;28;20053;-60
2023/06/19 02:24:09;;;;;;;4.68;3.25;;;;;;;23.84;46.00;100861.56;5115679;28;20570;-61
2023/06/19 02:26:38;;;;;;;5.72;3.03;;;;;;;23.84;45.97;100867.03;5119907;28;20052;-62
2023/06/19 02:29:06;;;;;;;4.70;3.10;;;;;;;23.82;45.74;100856.38;5125494;28;20047;-62
2023/06/19 02:31:34;;;;;;;6.45;3.40;;;;;;;23.81;45.31;100860.25;5121138;28;20043;-62
2023/06/19 02:34:02;;;;;;;4.10;2.90;;;;;;;23.80;45.76;100860.56;5121067;28;20047;-62
2023/06/19 02:36:30;;;;;;;4.05;2.75;;;;;;;23.79;45.74;100853.44;5121149;28;20043;-62
2023/06/19 02:38:58;;;;;;;5.40;3.17;;;;;;;23.77;45.27;100853.75;5119412;28;20048;-62
2023/06/19 02:41:25;;;;;;;4.10;2.78;;;;;;;23.76;45.73;100851.31;5122549;28;20043;-62
2023/06/19 02:43:55;;;;;;;4.50;2.95;;;;;;;23.76;45.28;100854.06;5122793;28;20078;-61
2023/06/19 02:46:22;;;;;;;4.28;2.72;;;;;;;23.73;45.34;100852.75;5123136;28;20051;-62
2023/06/19 02:48:50;;;;;;;4.20;3.30;;;;;;;23.70;45.79;100853.38;5120854;28;20104;-62
2023/06/19 02:51:18;;;;;;;4.90;2.85;;;;;;;23.72;45.49;100861.28;5123000;28;20479;-62
2023/06/19 02:53:46;;;;;;;4.07;3.13;;;;;;;23.70;45.65;100864.34;5123241;28;20081;-62
2023/06/19 02:56:13;;;;;;;4.63;3.38;;;;;;;23.67;45.59;100865.78;5120099;28;20073;-62
2023/06/19 02:58:41;;;;;;;3.72;2.83;;;;;;;23.67;45.43;100875.94;5124546;28;20052;-62
2023/06/19 03:01:10;;;;;;;6.13;3.20;;;;;;;23.64;45.94;100871.88;5123417;28;20048;-62
2023/06/19 03:03:38;;;;;;;3.53;2.90;;;;;;;23.64;45.71;100873.81;5117069;28;20068;-62
2023/06/19 03:06:07;;;;;;;5.25;3.53;;;;;;;23.62;46.09;100876.06;5122766;28;20055;-62
2023/06/19 03:08:35;;;;;;;4.68;3.00;;;;;;;23.61;45.99;100872.50;5123093;28;20051;-62
2023/06/19 03:11:04;;;;;;;6.28;3.15;;;;;;;23.59;46.06;100884.91;5121422;28;20055;-61
2023/06/19 03:13:34;;;;;;;4.80;3.53;;;;;;;23.56;46.37;100878.09;5124741;28;20078;-62
2023/06/19 03:16:02;;;;;;;4.88;2.60;;;;;;;23.56;46.00;100883.56;5118888;28;20075;-61
2023/06/19 03:18:31;;;;;;;5.20;3.33;;;;;;;23.54;46.10;100883.06;5122085;28;20051;-61
2023/06/19 03:20:59;;;;;;;3.60;2.88;;;;;;;23.54;46.28;100879.53;5119607;28;20043;-62
2023/06/19 03:23:27;;;;;;;3.83;2.83;;;;;;;23.52;46.17;100888.03;5122433;28;20043;-62
2023/06/19 03:25:54;;;;;;;5.03;3.30;;;;;;;23.52;46.33;100896.25;5121089;28;20047;-59
2023/06/19 03:28:22;;;;;;;4.47;2.58;;;;;;;23.51;46.26;100889.16;5122060;28;20055;-61
2023/06/19 03:30:51;;;;;;;4.80;2.97;;;;;;;23.47;46.16;100892.81;5121318;28;20055;-62
2023/06/19 03:33:18;;;;;;;4.68;2.63;;;;;;;23.49;46.12;100891.38;5122702;28;20047;-62
2023/06/19 03:35:48;;;;;;;6.22;3.13;;;;;;;23.49;46.17;100887.81;5120800;28;20067;-61
2023/06/19 03:38:16;;;;;;;4.03;2.70;;;;;;;23.48;46.15;100898.00;5121935;28;20079;-62
2023/06/19 03:40:43;;;;;;;5.15;2.65;;;;;;;23.47;46.51;100909.28;5121602;28;20066;-62
2023/06/19 03:43:12;;;;;;;5.00;3.42;;;;;;;23.46;45.97;100899.41;5120423;28;20134;-63
2023/06/19 03:45:40;;;;;;;4.00;2.55;;;;;;;23.46;46.33;100904.91;5122008;28;20115;-61
2023/06/19 03:48:08;;;;;;;3.67;2.45;;;;;;;23.44;46.62;100902.47;5115949;28;20052;-61
2023/06/19 03:50:35;;;;;;;4.43;2.75;;;;;;;23.43;46.39;100913.75;5124223;28;20090;-62
2023/06/19 03:53:05;;;;;;;5.90;2.75;;;;;;;23.43;46.50;100919.22;5120595;28;20070;-61
2023/06/19 03:55:33;;;;;;;3.55;2.50;;;;;;;23.42;46.81;100917.59;5123045;28;20069;-62
2023/06/19 03:58:01;;;;;;;3.90;2.85;;;;;;;23.40;46.78;100920.66;5120892;28;20052;-62
2023/06/19 04:00:29;;;;;;;3.88;2.90;;;;;;;23.40;46.86;100928.88;5122166;28;20060;-62
2023/06/19 04:02:57;;;;;;;4.03;2.72;;;;;;;23.38;47.17;100926.44;5112751;28;20380;-60
2023/06/19 04:05:25;;;;;;;5.70;2.90;;;;;;;23.39;47.26;100932.75;5123428;28;20048;-61
2023/06/19 04:07:53;;;;;;;4.90;2.95;;;;;;;23.37;46.95;100937.72;5118793;28;20051;-61
2023/06/19 04:10:22;;;;;;;4.03;3.10;;;;;;;23.36;47.78;100936.91;5119669;28;20052;-61
2023/06/19 04:12:51;;;;;;;7.18;2.78;;;;;;;23.34;47.47;100936.41;5111183;28;20081;-62
2023/06/19 04:15:18;;;;;;;4.70;2.63;;;;;;;23.32;47.43;100937.81;5119889;28;20051;-62
2023/06/19 04:17:46;;;;;;;3.72;2.53;;;;;;;23.31;47.46;100949.91;5116891;28;20069;-62
2023/06/19 04:20:14;;;;;;;4.90;2.83;;;;;;;23.30;47.65;100946.34;5122835;28;20054;-62
2023/06/19 04:22:42;;;;;;;4.00;2.60;;;;;;;23.29;48.00;100954.88;5113519;28;20070;-61
2023/06/19 04:25:10;;;;;;;4.97;2.78;;;;;;;23.27;48.40;100951.63;5122083;28;20043;-62
2023/06/19 04:27:40;;;;;;;3.97;2.63;;;;;;;23.26;48.25;100959.06;5120374;28;20062;-61
2023/06/19 04:30:09;;;;;;;3.78;2.55;;;;;;;23.25;47.83;100968.41;5118832;28;20047;-61
2023/06/19 04:32:40;;;;;;;4.28;2.60;;;;;;;23.24;48.06;100961.28;5117100;28;20065;-60
2023/06/19 04:35:09;;;;;;;4.80;2.50;;;;;;;23.23;48.10;100967.88;5124110;28;20210;-62
2023/06/19 04:37:37;;;;;;;3.97;2.90;;;;;;;23.23;48.14;100967.88;5124214;28;20094;-62
2023/06/19 04:40:07;;;;;;;3.40;2.72;;;;;;;23.21;48.37;100969.31;5124741;28;20116;-62
2023/06/19 04:42:35;;;;;;;3.50;2.45;;;;;;;23.21;48.63;100972.03;5122298;28;20054;-61
2023/06/19 04:45:07;;;;;;;6.47;2.58;;;;;;;23.19;48.39;100975.09;5120536;28;20051;-61
2023/06/19 04:47:34;;;;;;;4.45;2.70;;;;;;;23.19;48.34;100980.56;5120102;28;20043;-62
2023/06/19 04:50:19;;;;;;;6.22;2.95;;;;;;;23.19;48.64;100979.75;5122183;28;20048;-62
2023/06/19 04:52:47;;;;;;;5.10;3.15;;;;;;;23.17;48.65;100977.31;5124999;28;20047;-62
2023/06/19 04:55:15;;;;;;;3.60;2.35;;;;;;;23.17;48.99;100987.47;5125876;28;20052;-63
2023/06/19 04:57:42;;;;;;;3.55;2.45;;;;;;;23.16;48.65;100983.94;5124639;28;20073;-61
2023/06/19 05:00:14;;;;;;;5.68;2.58;;;;;;;23.16;48.32;100978.44;5121090;28;20055;-61
2023/06/19 05:02:45;;;;;;;4.20;2.40;;;;;;;23.15;48.09;100984.22;5117790;28;20079;-63
2023/06/19 05:05:13;;;;;;;5.60;2.50;;;;;;;23.15;48.02;100982.31;5121469;28;20087;-62
2023/06/19 05:07:41;;;;;;;3.80;2.70;;;;;;;23.14;48.65;100979.84;5122981;28;20039;-62
2023/06/19 05:10:10;;;;;;;5.65;2.70;;;;;;;23.13;48.05;100984.53;5123165;28;20052;-62
2023/06/19 05:12:38;;;;;;;4.00;2.28;;;;;;;23.16;48.07;100988.59;5122873;28;20039;-62
2023/06/19 05:15:07;;;;;;;3.55;2.70;;;;;;;23.14;48.50;100994.38;5120317;28;20043;-62
2023/06/19 05:17:38;;;;;;;4.60;2.60;;;;;;;23.13;48.02;100998.25;5123249;28;20055;-62
2023/06/19 05:20:08;;;;;;;3.80;2.63;;;;;;;23.14;48.47;100999.88;5124784;28;20052;-62
2023/06/19 05:22:36;;;;;;;3.50;2.50;;;;;;;23.14;48.64;100997.13;5123718;28;20068;-61
2023/06/19 05:25:04;;;;;;;3.75;2.42;;;;;;;23.14;48.76;101004.53;5122093;28;20623;-61
2023/06/19 05:27:32;;;;;;;5.05;2.53;;;;;;;23.13;48.72;101003.72;5124353;28;20135;-64
2023/06/19 05:30:00;;;;;;;4.35;2.47;;;;;;;23.12;49.23;100999.34;5122295;28;20044;-65
2023/06/19 05:32:28;;;;;;;5.38;2.75;;;;;;;23.11;49.55;101008.69;5121280;28;20311;-64
2023/06/19 05:34:57;;;;;;;6.35;2.78;;;;;;;23.17;48.34;101015.72;5123192;28;20112;-63
2023/06/19 05:37:27;;;;;;;6.72;2.80;;;;;;;23.17;48.76;101009.41;5123113;28;20065;-63
2023/06/19 05:39:54;;;;;;;3.13;2.28;;;;;;;23.14;48.69;101008.09;5124545;28;20044;-69
2023/06/19 05:42:22;;;;;;;4.43;2.42;;;;;;;23.15;48.92;101009.72;5122559;28;20044;-63
2023/06/19 05:44:50;;;;;;;4.32;2.83;;;;;;;23.18;48.42;101016.53;4763222;28;10000615;-64
2023/06/19 05:47:20;;;;;;;4.85;2.45;;;;;;;23.15;48.92;101023.44;5116938;28;20104;-63
2023/06/19 05:49:48;;;;;;;4.60;2.35;;;;;;;23.12;49.34;101017.72;5119640;28;20055;-64
2023/06/19 05:52:17;;;;;;;5.38;2.55;;;;;;;23.11;49.70;101008.69;5120421;28;20044;-64
2023/06/19 05:54:45;;;;;;;5.15;2.60;;;;;;;23.24;49.25;101010.66;5112974;28;20103;-64
2023/06/19 05:57:15;;;;;;;4.57;2.75;;;;;;;23.19;49.00;101018.16;5120611;28;20044;-63
2023/06/19 05:59:43;;;;;;;4.90;2.70;;;;;;;23.16;49.34;101010.53;5120812;28;20056;-65
2023/06/19 06:02:11;;;;;;;3.05;2.35;;;;;;;23.15;49.65;101017.13;5114681;28;20100;-64
2023/06/19 06:04:39;;;;;;;5.00;2.97;;;;;;;23.10;50.05;101012.56;5118484;28;20051;-65
2023/06/19 06:07:07;;;;;;;4.20;2.25;;;;;;;23.16;49.87;101005.03;5113314;28;20077;-65
2023/06/19 06:09:37;;;;;;;7.88;2.92;;;;;;;23.16;50.89;101021.50;5118347;28;20104;-63
2023/06/19 06:12:05;;;;;;;8.32;3.00;;;;;;;23.11;51.15;101033.38;5117487;28;20104;-63
2023/06/19 06:14:33;;;;;;;5.78;2.90;;;;;;;23.08;50.88;101042.19;5116518;28;20069;-64
2023/06/19 06:17:01;;;;;;;7.30;2.83;;;;;;;23.07;51.13;101046.06;5115329;28;20553;-65
2023/06/19 06:19:29;;;;;;;3.95;2.60;;;;;;;23.06;51.11;101047.16;5121770;28;20071;-65
2023/06/19 06:21:59;;;;;;;4.30;2.30;;;;;;;23.06;50.32;101052.66;5123432;28;20071;-64
2023/06/19 06:24:27;;;;;;;4.65;2.80;;;;;;;23.08;50.32;101063.31;5114928;28;20050;-64
2023/06/19 06:26:58;;;;;;;6.28;2.78;;;;;;;23.09;51.20;101062.19;5123958;28;20054;-63
2023/06/19 06:29:26;;;;;;;4.32;2.67;;;;;;;23.08;50.71;101063.31;5124635;28;20048;-63
2023/06/19 06:32:04;;;;;;;5.13;2.78;;;;;;;23.10;50.64;101069.31;5123954;28;20122;-64
2023/06/19 06:34:33;;;;;;;4.15;2.63;;;;;;;23.09;50.28;101070.44;5118914;28;20104;-65
2023/06/19 06:37:01;;;;;;;7.40;2.67;;;;;;;23.13;50.57;101076.94;5109394;28;20600;-64
2023/06/19 06:39:33;;;;;;;4.22;2.92;;;;;;;23.12;50.57;101086.28;5116836;28;20074;-63
2023/06/19 06:42:05;;;;;;;7.05;2.47;;;;;;;23.13;50.32;101079.69;5117278;28;20047;-63
2023/06/19 06:44:33;;;;;;;5.22;2.35;;;;;;;23.12;50.45;101078.88;5121119;28;20040;-64
2023/06/19 06:47:01;;;;;;;5.47;2.85;;;;;;;23.17;50.55;101081.53;5120855;28;20047;-63
2023/06/19 06:49:28;;;;;;;4.80;2.65;;;;;;;23.21;50.38;101082.56;5119064;28;20043;-63
2023/06/19 06:51:56;;;;;;;5.20;2.80;;;;;;;23.18;49.77;101083.16;5112719;28;20055;-65
2023/06/19 06:54:24;;;;;;;4.50;2.70;;;;;;;23.18;49.82;101087.81;5122552;28;20051;-66
2023/06/19 06:56:56;;;;;;;4.18;2.45;;;;;;;23.20;49.78;101091.88;4761304;28;10000436;-65
2023/06/19 06:59:26;;;;;;;5.90;2.92;;;;;;;23.23;50.23;101091.28;5116049;28;20457;-65
2023/06/19 07:01:56;;;;;;;6.03;2.60;;;;;;;23.30;49.50;101099.13;5117925;28;20081;-64
2023/06/19 07:04:24;;;;;;;4.30;3.00;;;;;;;23.32;49.21;101092.22;5111995;28;20048;-64
2023/06/19 07:06:52;;;;;;;5.05;3.00;;;;;;;23.30;49.66;101105.44;5115499;28;20073;-64
2023/06/19 07:09:21;;;;;;;4.20;3.00;;;;;;;23.29;49.42;101108.47;5118075;28;20115;-66
2023/06/19 07:11:49;;;;;;;4.53;2.72;;;;;;;23.29;49.39;101112.03;5109928;28;20058;-64
2023/06/19 07:14:20;;;;;;;5.18;2.80;;;;;;;23.45;49.28;101109.84;5119747;28;20078;-64
2023/06/19 07:16:50;;;;;;;4.10;2.92;;;;;;;23.42;49.15;101124.16;5107541;28;20051;-64
2023/06/19 07:19:18;;;;;;;4.53;3.30;;;;;;;23.42;49.50;101117.84;5113740;28;20043;-64
2023/06/19 07:21:46;;;;;;;5.88;3.45;;;;;;;23.37;49.38;101116.00;5120424;28;20051;-64
2023/06/19 07:24:14;;;;;;;6.20;3.50;;;;;;;23.37;49.50;101126.97;5110459;28;20056;-64
2023/06/19 07:26:42;;;;;;;7.70;3.08;;;;;;;23.47;49.63;101128.75;5117445;28;20561;-64
2023/06/19 07:29:10;;;;;;;6.18;3.38;;;;;;;23.50;49.19;101134.44;5121164;28;20051;-64
2023/06/19 07:31:38;;;;;;;4.43;3.05;;;;;;;23.51;49.46;101143.47;5116652;28;20051;-65
2023/06/19 07:34:07;;;;;;;6.13;3.05;;;;;;;23.43;49.14;101139.50;5113663;28;20048;-65
2023/06/19 07:36:35;;;;;;;4.65;3.30;;;;;;;23.40;49.06;101142.03;5123831;28;20150;-64
2023/06/19 07:39:03;;;;;;;6.63;4.22;;;;;;;23.42;49.24;101131.56;5122326;28;20051;-64
2023/06/19 07:41:31;;;;;;;6.45;3.35;;;;;;;23.45;48.86;101136.44;5121127;28;20429;-64
2023/06/19 07:43:59;;;;;;;9.05;3.55;;;;;;;23.41;48.67;101129.94;5123724;28;20070;-66
2023/06/19 07:46:27;;;;;;;5.45;2.90;;;;;;;23.38;48.65;101132.16;5122999;28;20100;-62
2023/06/19 07:48:55;;;;;;;5.93;2.85;;;;;;;23.38;48.63;101125.88;5123421;28;20048;-62
2023/06/19 07:51:24;;;;;;;4.85;3.20;;;;;;;23.37;48.99;101132.47;5119498;28;20121;-62
2023/06/19 07:53:52;;;;;;;7.45;4.10;;;;;;;23.36;48.63;101131.66;5124152;28;20096;-62
2023/06/19 07:56:20;;;;;;;5.80;3.90;;;;;;;23.36;48.87;101128.09;5115265;28;20132;-63
2023/06/19 07:58:48;;;;;;;6.30;3.15;;;;;;;23.28;48.63;101117.81;5119524;28;20047;-62
2023/06/19 08:01:15;;;;;;;5.28;3.10;;;;;;;23.36;48.55;101131.66;5123114;28;20492;-63
2023/06/19 08:03:43;;;;;;;4.10;2.95;;;;;;;23.36;48.54;101139.06;5124087;28;20050;-61
2023/06/19 08:06:11;;;;;;;4.90;3.25;;;;;;;23.38;48.95;101137.66;5113329;28;20521;-62
2023/06/19 08:08:40;;;;;;;4.68;2.67;;;;;;;23.38;48.76;101140.41;5123072;28;20043;-62
2023/06/19 08:11:08;;;;;;;5.80;3.45;;;;;;;23.40;49.00;101134.59;5127280;28;20055;-63
2023/06/19 08:13:36;;;;;;;3.67;2.80;;;;;;;23.42;48.74;101137.88;5127572;28;20058;-62
2023/06/19 08:16:04;;;;;;;4.30;3.28;;;;;;;23.43;48.93;101146.91;5120122;28;20051;-61
2023/06/19 08:18:32;;;;;;;5.60;3.35;;;;;;;23.44;48.95;101151.28;5123311;28;20048;-62
2023/06/19 08:21:00;;;;;;;9.32;3.22;;;;;;;23.44;48.80;101146.63;5119354;28;20520;-62
2023/06/19 08:23:28;;;;;;;6.13;3.40;;;;;;;23.44;48.89;101130.16;5125833;28;20074;-62
2023/06/19 08:25:57;;;;;;;4.55;3.13;;;;;;;23.47;48.53;101134.22;5120832;28;20058;-61
2023/06/19 08:28:25;;;;;;;5.30;3.17;;;;;;;23.48;48.65;101141.34;5113805;28;20055;-62
2023/06/19 08:30:53;;;;;;;4.18;2.90;;;;;;;23.49;48.76;101145.72;5127163;28;20506;-62
2023/06/19 08:33:20;;;;;;;5.20;3.30;;;;;;;23.50;48.20;101144.59;5127154;28;20051;-63
2023/06/19 08:35:48;;;;;;;5.95;3.30;;;;;;;23.49;48.36;101152.00;5121156;28;20056;-62
2023/06/19 08:38:16;;;;;;;5.28;3.28;;;;;;;23.51;48.73;101159.94;5123387;28;20048;-63
2023/06/19 08:40:44;;;;;;;6.55;4.00;;;;;;;23.50;48.47;101153.63;5126819;28;20059;-62
2023/06/19 08:43:13;;;;;;;5.30;3.38;;;;;;;23.51;48.64;101159.94;5112395;28;20141;-63
2023/06/19 08:45:41;;;;;;;5.20;3.50;;;;;;;23.51;48.56;101166.25;5127418;28;20152;-63
2023/06/19 08:48:14;;;;;;;5.65;3.20;;;;;;;23.51;48.68;101179.16;5125565;28;20056;-63
2023/06/19 08:50:42;;;;;;;4.72;3.15;;;;;;;23.51;48.30;101182.69;5118284;28;20059;-63
2023/06/19 08:53:10;;;;;;;3.75;3.08;;;;;;;23.52;48.59;101186.25;5113997;28;20048;-63
2023/06/19 08:55:38;;;;;;;9.43;3.20;;;;;;;23.52;48.42;101183.53;5127610;28;20108;-63
2023/06/19 08:58:06;;;;;;;6.47;4.30;;;;;;;23.53;48.22;101182.41;5125449;28;20092;-63
2023/06/19 09:00:35;;;;;;;5.95;3.85;;;;;;;23.55;48.72;101181.03;5123161;28;20174;-63
2023/06/19 09:03:04;;;;;;;4.15;3.33;;;;;;;23.58;48.51;101179.59;5124490;28;20039;-63
2023/06/19 09:05:43;;;;;;;5.15;3.45;;;;;;;23.60;48.41;101180.13;5117575;28;20059;-63
2023/06/19 09:08:15;;;;;;;7.97;3.40;;;;;;;23.63;48.30;101185.81;5126648;28;20111;-63
2023/06/19 09:10:43;;;;;;;4.90;3.75;;;;;;;23.65;48.33;101183.59;5123543;28;20044;-63
2023/06/19 09:13:11;;;;;;;5.40;3.50;;;;;;;23.67;48.63;101183.28;5125403;28;20047;-60
2023/06/19 09:15:40;;;;;;;4.53;3.35;;;;;;;23.68;48.53;101191.22;5118832;28;20120;-62
2023/06/19 09:18:10;;;;;;;5.70;3.83;;;;;;;23.67;48.34;101191.53;5124994;28;20385;-62
2023/06/19 09:20:43;;;;;;;6.43;3.30;;;;;;;23.73;48.54;101197.72;5124281;28;20044;-62
2023/06/19 09:23:12;;;;;;;6.90;3.55;;;;;;;23.75;48.00;101201.81;5118040;28;20479;-62
2023/06/19 09:25:47;;;;;;;8.25;4.97;;;;;;;23.78;48.19;101192.97;5119154;28;20054;-63
2023/06/19 09:28:20;;;;;;;5.47;3.30;;;;;;;23.81;48.32;101202.53;5120655;28;20048;-63
2023/06/19 09:30:59;;;;;;;5.85;3.25;;;;;;;23.82;47.92;101207.72;5117351;28;20077;-63
2023/06/19 09:33:28;;;;;;;4.75;3.28;;;;;;;23.84;48.09;101212.91;5126302;28;20088;-62
2023/06/19 09:35:57;;;;;;;6.68;4.00;;;;;;;23.85;47.49;101217.28;5123117;28;20055;-63
2023/06/19 09:38:29;;;;;;;5.00;3.95;;;;;;;23.86;47.77;101210.69;5118125;28;20128;-65
2023/06/19 09:40:59;;;;;;;5.72;4.07;;;;;;;23.87;47.58;101209.56;5123025;28;20411;-62
2023/06/19 09:43:34;;;;;;;6.38;3.78;;;;;;;23.86;47.25;101214.22;5120647;28;20040;-63
2023/06/19 09:46:04;;;;;;;6.50;4.00;;;;;;;23.80;47.17;101190.75;5124786;28;20067;-63
2023/06/19 09:48:35;;;;;;;8.10;4.00;;;;;;;23.91;47.56;101205.91;5115081;28;20048;-64
2023/06/19 09:51:10;;;;;;;6.65;4.25;;;;;;;23.93;47.38;101211.09;5110530;28;20052;-62
2023/06/19 09:53:38;;;;;;;6.45;4.07;;;;;;;23.94;47.58;101208.03;5120830;28;21076;-63
2023/06/19 09:56:07;;;;;;;5.57;3.90;;;;;;;24.04;47.51;101214.47;5124610;28;20055;-63
2023/06/19 09:58:37;;;;;;;4.75;3.58;;;;;;;24.09;47.56;101215.19;5110957;28;20052;-63
2023/06/19 10:01:07;;;;;;;6.13;4.03;;;;;;;24.16;47.11;101206.53;5124796;28;20463;-63
2023/06/19 10:03:36;;;;;;;7.00;3.88;;;;;;;24.15;47.44;101222.22;5125781;28;20051;-63
2023/06/19 10:06:05;;;;;;;8.68;4.45;;;;;;;24.21;47.07;101221.00;5118676;28;20077;-64
2023/06/19 10:08:40;;;;;;;7.70;3.80;;;;;;;24.19;47.42;101217.75;5125640;28;20069;-62
2023/06/19 10:11:08;;;;;;;6.88;3.85;;;;;;;24.18;46.98;101218.03;5124200;28;20059;-60
2023/06/19 10:13:38;;;;;;;7.18;3.90;;;;;;;24.17;47.04;101222.72;5116261;28;20104;-66
2023/06/19 10:16:08;;;;;;;5.65;3.80;;;;;;;24.22;47.46;101216.31;5123101;28;20054;-62
2023/06/19 10:18:46;;;;;;;6.90;4.13;;;;;;;24.21;47.09;101215.50;4765558;28;10000322;-62
2023/06/19 10:21:17;;;;;;;5.90;4.05;;;;;;;24.31;47.33;101217.25;5115924;28;20109;-62
2023/06/19 10:23:54;;;;;;;7.90;4.25;;;;;;;24.31;47.44;101207.06;5121530;28;20051;-62
2023/06/19 10:26:31;;;;;;;7.97;3.97;;;;;;;24.33;46.95;101215.81;5108750;28;20409;-61
2023/06/19 10:28:58;;;;;;;5.90;4.10;;;;;;;24.33;47.18;101215.00;5116978;28;20073;-63
2023/06/19 10:31:29;;;;;;;7.75;4.53;;;;;;;24.36;46.96;101225.38;5118407;28;20108;-62
2023/06/19 10:33:57;;;;;;;6.68;4.15;;;;;;;24.39;47.01;101222.03;5118984;28;20066;-62
2023/06/19 10:36:26;;;;;;;5.82;4.18;;;;;;;24.38;47.25;101219.56;5120217;28;20108;-62
2023/06/19 10:38:54;;;;;;;7.32;4.35;;;;;;;24.39;47.33;101224.75;5118692;28;20043;-62
2023/06/19 10:41:24;;;;;;;6.70;4.15;;;;;;;24.46;47.44;101218.88;5114806;28;20047;-62
2023/06/19 10:43:57;;;;;;;7.38;4.63;;;;;;;24.46;47.31;101221.63;5121200;28;20055;-62
2023/06/19 10:46:29;;;;;;;6.32;4.05;;;;;;;24.48;47.24;101214.69;5111357;28;20128;-62
2023/06/19 10:49:00;;;;;;;6.40;4.18;;;;;;;24.53;46.76;101222.03;5117593;28;20050;-61
2023/06/19 10:51:29;;;;;;;7.82;4.30;;;;;;;24.52;46.43;101221.19;5112356;28;20077;-62
2023/06/19 10:53:57;;;;;;;9.00;4.70;;;;;;;24.50;46.51;101214.38;5117825;28;20062;-62
2023/06/19 10:56:26;;;;;;;10.18;5.10;;;;;;;24.50;46.18;101212.44;5116037;28;20048;-62
2023/06/19 10:59:01;;;;;;;5.82;4.45;;;;;;;24.53;46.78;101202.78;5121293;28;20060;-62
2023/06/19 11:01:35;;;;;;;7.63;4.72;;;;;;;24.56;46.90;101213.97;5112042;28;20055;-62
2023/06/19 11:04:06;;;;;;;9.73;4.72;;;;;;;24.65;46.48;101208.56;5119416;28;20104;-63
2023/06/19 11:06:35;;;;;;;6.40;4.45;;;;;;;24.70;46.79;101208.47;5117892;28;20100;-62
2023/06/19 11:09:04;;;;;;;7.85;4.38;;;;;;;24.71;46.36;101207.34;5121200;28;20071;-62
2023/06/19 11:11:37;;;;;;;6.50;4.53;;;;;;;24.78;46.02;101202.22;5118804;28;20164;-63
2023/06/19 11:14:05;;;;;;;6.30;4.70;;;;;;;24.83;46.12;101209.56;5119090;28;20059;-62
2023/06/19 11:16:34;;;;;;;6.38;4.70;;;;;;;24.87;46.15;101205.88;5115458;28;20105;-62
2023/06/19 11:19:02;;;;;;;5.93;4.70;;;;;;;24.89;45.81;101202.81;5120902;28;20173;-63
2023/06/19 11:21:34;;;;;;;8.65;4.70;;;;;;;24.94;46.08;101195.28;5108182;28;20565;-62
2023/06/19 11:24:02;;;;;;;5.57;4.43;;;;;;;24.97;46.16;101199.38;5119616;28;20051;-62
2023/06/19 11:26:31;;;;;;;7.70;5.15;;;;;;;24.95;45.73;101196.91;5116606;28;20099;-62
2023/06/19 11:28:59;;;;;;;6.65;5.00;;;;;;;24.95;45.68;101194.16;5108506;28;20560;-63
2023/06/19 11:31:27;;;;;;;8.40;4.70;;;;;;;24.95;45.64;101199.66;5116047;28;20110;-63
2023/06/19 11:34:01;;;;;;;6.80;4.32;;;;;;;25.01;45.55;101199.56;5116131;28;20103;-65